Time;durP1;ratioP1;P1;durP2;ratioP2;P2;SDS_P1;SDS_P2;PMS_P1;PMS_P2;Temp;Humidity;BMP_temperature;BMP_pressure;BME280_temperature;BME280_humidity;BME280_pressure;Samples;Min_cycle;Max_cycle;Signal;HPM_P1;HPM_P2
2023/03/25 00:01:02;;;;;;;1.80;1.23;;;9.30;97.30;;;;;;5098874;28;20416;-84
2023/03/25 00:03:32;;;;;;;1.30;1.20;;;9.30;97.30;;;;;;5101760;28;20446;-85
2023/03/25 00:05:59;;;;;;;1.47;1.37;;;9.40;97.30;;;;;;5105872;28;20506;-84
2023/03/25 00:08:25;;;;;;;4.17;2.53;;;9.40;97.30;;;;;;5111432;28;20436;-85
2023/03/25 00:10:52;;;;;;;2.80;1.93;;;9.40;97.30;;;;;;5109619;28;20468;-84
2023/03/25 00:13:17;;;;;;;3.20;1.73;;;9.40;97.30;;;;;;5112084;28;20443;-85
2023/03/25 00:15:46;;;;;;;1.13;1.03;;;9.40;97.30;;;;;;5104584;28;20916;-85
2023/03/25 00:18:16;;;;;;;1.37;1.27;;;9.50;97.30;;;;;;5107074;28;20190;-82
2023/03/25 00:20:44;;;;;;;1.50;1.40;;;9.50;97.30;;;;;;5098815;28;20420;-79
2023/03/25 00:23:11;;;;;;;1.60;1.50;;;9.50;97.30;;;;;;5105999;28;20431;-79
2023/03/25 00:25:37;;;;;;;1.60;1.50;;;9.50;97.30;;;;;;5105945;28;20941;-79
2023/03/25 00:28:03;;;;;;;1.77;1.77;;;9.50;97.30;;;;;;5100526;28;21014;-79
2023/03/25 00:30:29;;;;;;;2.60;1.27;;;9.50;97.30;;;;;;5097294;28;20469;-79
2023/03/25 00:32:56;;;;;;;8.10;2.67;;;9.50;97.30;;;;;;5113393;28;20703;-80
2023/03/25 00:35:22;;;;;;;1.53;1.43;;;9.60;97.30;;;;;;5100236;28;20233;-80
2023/03/25 00:37:56;;;;;;;1.60;1.50;;;9.60;97.30;;;;;;5098977;28;20450;-80
2023/03/25 00:40:22;;;;;;;2.47;2.27;;;9.60;97.30;;;;;;5107454;28;20504;-80
2023/03/25 00:42:49;;;;;;;1.83;1.73;;;9.60;97.30;;;;;;5102262;28;20814;-84
2023/03/25 00:45:15;;;;;;;3.33;2.57;;;9.60;97.30;;;;;;5110262;28;20604;-82
2023/03/25 00:47:41;;;;;;;1.30;1.20;;;9.70;97.30;;;;;;5113569;28;20469;-80
2023/03/25 00:50:07;;;;;;;3.23;1.73;;;9.70;97.30;;;;;;5091709;28;20900;-80
2023/03/25 00:52:36;;;;;;;1.73;1.67;;;9.70;97.30;;;;;;5103092;28;20459;-80
2023/03/25 00:55:03;;;;;;;2.47;2.27;;;9.70;97.30;;;;;;5106432;28;20427;-80
2023/03/25 00:57:29;;;;;;;5.50;3.07;;;9.70;97.30;;;;;;5106460;28;20461;-79
2023/03/25 00:59:55;;;;;;;1.40;1.33;;;9.80;97.30;;;;;;5104696;28;20412;-79
2023/03/25 01:02:21;;;;;;;1.77;1.60;;;9.80;97.30;;;;;;5107816;28;20416;-80
2023/03/25 01:04:48;;;;;;;1.77;1.67;;;9.80;97.30;;;;;;5114749;28;20178;-81
2023/03/25 01:07:19;;;;;;;1.80;1.13;;;9.90;97.30;;;;;;5096021;28;20420;-80
2023/03/25 01:09:46;;;;;;;1.53;1.43;;;9.90;97.30;;;;;;5113264;28;20449;-80
2023/03/25 01:12:12;;;;;;;3.03;2.17;;;9.90;97.30;;;;;;5107377;28;20485;-82
2023/03/25 01:14:38;;;;;;;1.73;1.63;;;9.90;97.30;;;;;;5113134;28;20523;-80
2023/03/25 01:17:04;;;;;;;2.13;1.80;;;9.90;97.30;;;;;;5109278;28;20436;-83
2023/03/25 01:19:30;;;;;;;1.00;0.90;;;10.00;97.30;;;;;;5112853;28;20366;-80
2023/03/25 01:21:55;;;;;;;1.53;1.43;;;10.00;97.30;;;;;;5105165;28;20969;-84
2023/03/25 01:24:21;;;;;;;1.20;1.10;;;10.00;97.30;;;;;;5110165;28;20652;-83
2023/03/25 01:26:46;;;;;;;1.93;1.83;;;10.00;97.30;;;;;;5099075;28;20632;-83
2023/03/25 01:29:14;;;;;;;1.83;1.80;;;10.00;97.30;;;;;;5111801;28;20197;-84
2023/03/25 01:31:40;;;;;;;2.00;1.57;;;10.00;97.30;;;;;;5106748;28;20230;-82
2023/03/25 01:34:07;;;;;;;1.20;1.10;;;10.00;97.30;;;;;;5110751;28;20498;-80
2023/03/25 01:36:34;;;;;;;3.50;1.30;;;10.10;97.30;;;;;;5109635;28;20254;-84
2023/03/25 01:39:01;;;;;;;2.00;1.83;;;10.10;97.30;;;;;;5108354;28;20468;-84
2023/03/25 01:41:28;;;;;;;1.00;0.90;;;10.10;97.30;;;;;;5107117;28;20424;-80
2023/03/25 01:44:07;;;;;;;2.43;1.53;;;10.10;97.30;;;;;;5083774;28;20415;-83
2023/03/25 01:46:44;;;;;;;1.67;1.57;;;10.20;97.30;;;;;;5101359;28;20534;-81
2023/03/25 01:49:14;;;;;;;1.20;1.10;;;10.20;97.30;;;;;;5108085;28;20945;-84
2023/03/25 01:51:44;;;;;;;1.53;1.20;;;10.30;97.30;;;;;;5106579;28;20479;-80
2023/03/25 01:54:11;;;;;;;1.90;1.40;;;10.30;97.30;;;;;;5113233;28;20408;-83
2023/03/25 01:56:41;;;;;;;4.43;1.27;;;10.30;97.30;;;;;;5110526;28;20487;-82
2023/03/25 01:59:07;;;;;;;1.17;1.07;;;10.30;97.30;;;;;;5110044;28;20447;-83
2023/03/25 02:01:35;;;;;;;1.57;1.47;;;10.30;97.30;;;;;;5098709;28;20442;-82
2023/03/25 02:04:08;;;;;;;1.23;1.13;;;10.40;97.30;;;;;;5102481;28;20467;-80
2023/03/25 02:06:46;;;;;;;2.50;1.53;;;10.40;97.30;;;;;;5110820;28;20427;-80
2023/03/25 02:09:18;;;;;;;1.33;1.23;;;10.40;97.30;;;;;;5107196;28;20428;-83
2023/03/25 02:11:46;;;;;;;1.13;1.10;;;10.40;97.30;;;;;;5111682;28;20572;-82
2023/03/25 02:14:17;;;;;;;1.50;1.40;;;10.50;97.30;;;;;;5112129;28;20450;-82
2023/03/25 02:17:32;;;;;;;1.30;1.10;;;10.50;97.30;;;;;;5115106;28;20431;-82
2023/03/25 02:20:16;;;;;;;1.00;0.90;;;10.50;97.30;;;;;;5097257;28;20445;-80
2023/03/25 02:23:06;;;;;;;2.03;1.93;;;10.50;97.30;;;;;;5106424;28;20452;-84
2023/03/25 02:26:09;;;;;;;1.23;1.13;;;10.50;97.30;;;;;;5106006;28;20875;-84
2023/03/25 02:29:14;;;;;;;7.27;2.87;;;10.50;97.30;;;;;;5108366;28;20495;-82
2023/03/25 02:32:01;;;;;;;1.10;1.00;;;10.50;97.30;;;;;;5115338;28;20982;-81
2023/03/25 02:34:47;;;;;;;1.07;1.00;;;10.50;97.30;;;;;;5108615;28;20531;-81
2023/03/25 02:37:21;;;;;;;1.53;1.20;;;10.40;97.30;;;;;;5100686;28;20407;-81
2023/03/25 02:40:19;;;;;;;1.03;1.03;;;10.40;97.30;;;;;;5109745;28;21013;-83
2023/03/25 02:42:50;;;;;;;2.63;2.43;;;10.40;97.30;;;;;;5105877;28;20411;-84
2023/03/25 02:45:32;;;;;;;2.23;0.93;;;10.40;97.30;;;;;;5102348;28;20504;-84
2023/03/25 02:48:04;;;;;;;6.73;1.50;;;10.40;97.30;;;;;;5097247;28;20439;-82
2023/03/25 02:50:36;;;;;;;3.37;1.57;;;10.40;97.30;;;;;;5114098;28;20443;-83
2023/03/25 02:53:07;;;;;;;1.20;1.10;;;10.40;97.30;;;;;;5102367;28;20404;-84
2023/03/25 02:55:34;;;;;;;1.90;1.17;;;10.30;97.30;;;;;;5110101;28;20417;-81
2023/03/25 02:58:03;;;;;;;2.17;1.73;;;10.30;97.30;;;;;;5106265;28;20934;-82
2023/03/25 03:00:29;;;;;;;3.20;1.40;;;10.30;97.30;;;;;;5108462;28;20416;-81
2023/03/25 03:03:00;;;;;;;1.30;1.20;;;10.30;97.30;;;;;;5111197;28;20950;-80
2023/03/25 03:05:46;;;;;;;1.40;1.10;;;10.30;97.30;;;;;;5115839;28;20412;-81
2023/03/25 03:08:32;;;;;;;8.63;1.90;;;10.20;97.30;;;;;;5105121;28;20489;-82
2023/03/25 03:11:19;;;;;;;1.20;1.10;;;10.20;97.30;;;;;;5114607;28;20460;-82
2023/03/25 03:13:58;;;;;;;19.33;1.93;;;10.20;97.30;;;;;;5106171;28;20423;-83
2023/03/25 03:16:42;;;;;;;1.50;1.40;;;10.20;97.30;;;;;;5112311;28;20419;-82
2023/03/25 03:19:37;;;;;;;1.10;1.03;;;10.20;97.30;;;;;;5109433;28;20842;-83
2023/03/25 03:22:33;;;;;;;1.40;1.30;;;10.20;97.30;;;;;;5103383;28;20796;-83
2023/03/25 03:25:21;;;;;;;4.63;2.60;;;10.20;97.30;;;;;;5089289;28;20444;-83
2023/03/25 03:28:18;;;;;;;1.20;1.10;;;10.20;97.30;;;;;;5112620;28;20438;-82
2023/03/25 03:31:10;;;;;;;1.93;1.30;;;10.20;97.30;;;;;;5074037;28;20650;-83
2023/03/25 03:33:46;;;;;;;0.90;0.80;;;10.20;97.30;;;;;;5110679;28;20490;-81
2023/03/25 03:36:15;;;;;;;1.17;1.07;;;10.20;97.30;;;;;;5112198;28;20424;-81
2023/03/25 03:38:53;;;;;;;1.57;1.27;;;10.20;97.30;;;;;;5109645;28;20439;-83
2023/03/25 03:41:22;;;;;;;1.10;1.00;;;10.20;97.30;;;;;;5112638;28;20423;-84
2023/03/25 03:44:10;;;;;;;1.53;1.47;;;10.20;97.30;;;;;;5107886;28;20451;-83
2023/03/25 03:46:40;;;;;;;0.90;0.80;;;10.20;97.30;;;;;;5109223;28;20415;-83
2023/03/25 03:49:11;;;;;;;1.40;1.30;;;10.30;97.30;;;;;;5113456;28;20431;-80
2023/03/25 03:51:45;;;;;;;10.73;1.83;;;10.30;97.30;;;;;;5108813;28;20768;-81
2023/03/25 03:54:17;;;;;;;1.20;1.10;;;10.20;97.30;;;;;;5116524;28;20440;-82
2023/03/25 03:56:52;;;;;;;1.80;1.67;;;10.20;97.30;;;;;;5109633;28;20397;-83
2023/03/25 03:59:41;;;;;;;1.00;1.00;;;10.20;97.30;;;;;;5112821;28;20512;-84
2023/03/25 04:02:23;;;;;;;2.40;2.17;;;10.30;97.30;;;;;;5098367;28;20424;-81
2023/03/25 04:04:50;;;;;;;1.57;1.30;;;10.30;97.30;;;;;;5108696;28;20829;-83
2023/03/25 04:07:20;;;;;;;1.53;1.43;;;10.30;97.30;;;;;;5114018;28;20415;-84
2023/03/25 04:10:13;;;;;;;1.80;1.47;;;10.30;97.30;;;;;;5108035;28;20450;-82
2023/03/25 04:12:43;;;;;;;14.80;1.50;;;10.40;97.30;;;;;;5109446;28;20459;-82
2023/03/25 04:15:10;;;;;;;1.77;1.13;;;10.40;97.30;;;;;;5113687;28;20411;-84
2023/03/25 04:17:35;;;;;;;0.97;0.90;;;10.40;97.30;;;;;;5105600;28;20423;-84
2023/03/25 04:20:05;;;;;;;1.00;0.90;;;10.40;97.30;;;;;;5104343;28;20430;-81
2023/03/25 04:22:31;;;;;;;1.40;1.30;;;10.40;97.30;;;;;;5106190;28;20640;-82
2023/03/25 04:24:59;;;;;;;1.10;1.10;;;10.40;97.30;;;;;;5111465;28;20423;-81
2023/03/25 04:27:28;;;;;;;1.03;0.93;;;10.40;97.30;;;;;;5111817;28;20178;-80
2023/03/25 04:29:56;;;;;;;1.10;1.00;;;10.40;97.30;;;;;;5107703;28;20412;-84
2023/03/25 04:32:22;;;;;;;1.20;1.10;;;10.40;97.30;;;;;;5110060;28;20507;-82
2023/03/25 04:34:47;;;;;;;2.50;1.90;;;10.50;97.30;;;;;;5111748;28;20417;-81
2023/03/25 04:37:13;;;;;;;0.90;0.80;;;10.50;97.30;;;;;;5107801;28;20667;-81
2023/03/25 04:39:39;;;;;;;0.90;0.80;;;10.40;97.30;;;;;;5094679;28;20209;-84
2023/03/25 04:42:04;;;;;;;1.00;0.90;;;10.40;97.30;;;;;;5104146;28;20421;-82
2023/03/25 04:44:32;;;;;;;1.00;0.90;;;10.40;97.30;;;;;;5105087;28;20178;-80
2023/03/25 04:46:58;;;;;;;0.77;0.73;;;10.40;97.30;;;;;;5108016;28;20173;-81
2023/03/25 04:49:24;;;;;;;1.00;0.90;;;10.40;97.30;;;;;;5112178;28;20938;-82
2023/03/25 04:51:52;;;;;;;1.00;0.90;;;10.40;97.30;;;;;;5106091;28;20451;-83
2023/03/25 04:54:22;;;;;;;1.00;0.90;;;10.30;97.30;;;;;;5113142;28;20415;-84
2023/03/25 04:56:48;;;;;;;0.90;0.80;;;10.30;97.30;;;;;;5104584;28;20910;-83
2023/03/25 04:59:14;;;;;;;1.07;1.03;;;10.30;97.30;;;;;;5109692;28;20450;-83
2023/03/25 05:01:41;;;;;;;0.90;0.80;;;10.30;97.30;;;;;;5111380;28;20425;-81
2023/03/25 05:04:11;;;;;;;1.00;0.90;;;10.30;97.30;;;;;;5104452;28;20421;-82
2023/03/25 05:06:38;;;;;;;0.90;0.80;;;10.30;97.30;;;;;;5101856;28;20441;-81
2023/03/25 05:09:06;;;;;;;1.00;0.90;;;10.30;97.30;;;;;;5091165;28;20431;-83
2023/03/25 05:11:33;;;;;;;1.10;1.00;;;10.30;97.20;;;;;;5103995;28;20494;-80
2023/03/25 05:13:59;;;;;;;0.90;0.80;;;10.30;97.20;;;;;;5116392;28;20937;-82
2023/03/25 05:16:25;;;;;;;1.10;1.00;;;10.30;97.20;;;;;;5104007;28;20424;-83
2023/03/25 05:18:51;;;;;;;1.20;1.10;;;10.30;97.30;;;;;;5112202;28;20434;-83
2023/03/25 05:21:17;;;;;;;1.33;1.23;;;10.20;97.30;;;;;;5103744;28;20181;-82
2023/03/25 05:23:42;;;;;;;1.70;1.60;;;10.20;97.30;;;;;;5111577;28;20178;-82
2023/03/25 05:26:08;;;;;;;0.90;0.80;;;10.20;97.20;;;;;;5105299;28;20418;-81
2023/03/25 05:28:34;;;;;;;1.10;1.00;;;10.20;97.10;;;;;;5111628;28;20256;-83
2023/03/25 05:31:07;;;;;;;0.90;0.80;;;10.20;97.20;;;;;;5102133;28;20692;-83
2023/03/25 05:33:33;;;;;;;1.20;1.10;;;10.20;97.20;;;;;;5108975;28;20470;-80
2023/03/25 05:35:58;;;;;;;1.00;0.90;;;10.20;96.60;;;;;;5108186;28;20435;-82
2023/03/25 05:38:24;;;;;;;0.90;0.80;;;10.20;96.60;;;;;;5106174;28;20514;-84
2023/03/25 05:40:49;;;;;;;0.90;0.80;;;10.20;96.80;;;;;;5108386;28;20553;-82
2023/03/25 05:43:21;;;;;;;1.00;0.90;;;10.20;96.90;;;;;;5100527;28;20609;-82
2023/03/25 05:45:47;;;;;;;0.90;0.80;;;10.10;96.70;;;;;;5096247;28;20649;-82
2023/03/25 05:48:12;;;;;;;0.90;0.80;;;10.10;96.80;;;;;;5113461;28;20443;-82
2023/03/25 05:50:41;;;;;;;1.07;1.00;;;10.10;96.90;;;;;;5103572;28;20204;-82
2023/03/25 05:53:11;;;;;;;1.33;1.23;;;10.00;96.90;;;;;;5091522;28;20196;-82
2023/03/25 05:55:37;;;;;;;1.00;0.90;;;10.00;97.20;;;;;;5099560;28;20415;-81
2023/03/25 05:58:03;;;;;;;1.00;0.90;;;9.90;97.30;;;;;;5103834;28;20431;-81
2023/03/25 06:00:29;;;;;;;1.00;0.90;;;9.90;96.70;;;;;;5098621;28;20174;-80
2023/03/25 06:02:55;;;;;;;1.37;1.30;;;10.00;96.60;;;;;;5105913;28;20411;-79
2023/03/25 06:05:22;;;;;;;1.00;0.90;;;10.00;96.60;;;;;;5100456;28;20450;-82
2023/03/25 06:07:48;;;;;;;1.20;1.10;;;10.00;96.20;;;;;;5109296;28;20205;-81
2023/03/25 06:10:15;;;;;;;1.00;0.90;;;10.00;96.20;;;;;;5110661;28;20451;-80
2023/03/25 06:12:42;;;;;;;1.03;0.93;;;10.00;96.40;;;;;;5102096;28;20696;-82
2023/03/25 06:15:09;;;;;;;0.90;0.80;;;10.10;96.30;;;;;;5111091;28;20449;-81
2023/03/25 06:17:38;;;;;;;1.00;0.90;;;10.10;96.10;;;;;;5104756;28;20420;-80
2023/03/25 06:20:11;;;;;;;1.20;1.10;;;10.10;95.90;;;;;;5108959;28;20443;-83
2023/03/25 06:22:44;;;;;;;1.30;1.20;;;10.10;95.60;;;;;;5111323;28;20472;-80
2023/03/25 06:25:12;;;;;;;3.50;2.50;;;10.20;95.30;;;;;;5092156;28;20420;-82
2023/03/25 06:27:40;;;;;;;0.90;0.80;;;10.20;95.30;;;;;;5107768;28;20500;-79
2023/03/25 06:30:08;;;;;;;1.40;1.30;;;10.20;95.30;;;;;;5098242;28;21067;-80
2023/03/25 06:32:34;;;;;;;1.13;1.13;;;10.20;95.10;;;;;;5104091;28;20494;-83
2023/03/25 06:34:59;;;;;;;1.00;0.90;;;10.20;95.50;;;;;;5111565;28;20488;-81
2023/03/25 06:37:27;;;;;;;0.90;0.80;;;10.20;95.60;;;;;;5104769;28;20622;-80
2023/03/25 06:39:55;;;;;;;0.90;0.80;;;10.20;95.80;;;;;;5113647;28;20184;-85
2023/03/25 06:42:22;;;;;;;4.50;2.70;;;10.30;95.40;;;;;;5103860;28;20806;-83
2023/03/25 06:44:48;;;;;;;1.90;1.07;;;10.30;95.50;;;;;;5114401;28;20415;-84
2023/03/25 06:47:14;;;;;;;1.10;1.10;;;10.30;95.60;;;;;;5102100;28;20408;-81
2023/03/25 06:49:42;;;;;;;0.90;0.80;;;10.30;95.90;;;;;;5110205;28;20431;-84
2023/03/25 06:52:11;;;;;;;4.93;1.53;;;10.30;96.00;;;;;;5097403;28;20672;-80
2023/03/25 06:54:40;;;;;;;1.00;0.90;;;10.30;96.30;;;;;;5107651;28;20937;-81
2023/03/25 06:57:10;;;;;;;1.10;1.00;;;10.30;96.00;;;;;;5109361;28;20499;-82
2023/03/25 06:59:35;;;;;;;2.20;1.87;;;10.30;96.10;;;;;;5112438;28;20437;-82
2023/03/25 07:02:01;;;;;;;1.00;0.90;;;10.30;96.10;;;;;;5107369;28;20428;-83
2023/03/25 07:04:29;;;;;;;1.23;1.20;;;10.30;95.90;;;;;;5108612;28;20713;-81
2023/03/25 07:06:57;;;;;;;1.00;0.90;;;10.30;96.70;;;;;;5108453;28;20194;-82
2023/03/25 07:09:22;;;;;;;1.10;1.00;;;10.30;96.70;;;;;;5109650;28;20484;-83
2023/03/25 07:11:48;;;;;;;16.87;1.53;;;10.30;96.80;;;;;;5112854;28;20456;-82
2023/03/25 07:14:13;;;;;;;1.00;0.90;;;10.30;96.00;;;;;;5106278;28;20177;-82
2023/03/25 07:16:39;;;;;;;1.00;0.90;;;10.40;96.30;;;;;;5111998;28;20544;-82
2023/03/25 07:19:04;;;;;;;1.00;0.90;;;10.40;96.10;;;;;;5109404;28;20676;-83
2023/03/25 07:21:30;;;;;;;32.30;1.77;;;10.50;96.00;;;;;;5095727;28;20674;-80
2023/03/25 07:23:55;;;;;;;1.00;0.90;;;10.50;95.70;;;;;;5099721;28;20181;-82
2023/03/25 07:26:21;;;;;;;0.90;0.80;;;10.60;95.70;;;;;;5109374;28;20178;-82
2023/03/25 07:28:46;;;;;;;1.47;1.27;;;10.60;95.90;;;;;;5100926;28;20258;-83
2023/03/25 07:31:15;;;;;;;1.23;1.13;;;10.50;96.00;;;;;;5097594;28;20269;-83
2023/03/25 07:33:41;;;;;;;1.10;1.00;;;10.40;97.00;;;;;;5102188;28;20178;-83
2023/03/25 07:36:10;;;;;;;1.70;1.10;;;10.30;97.30;;;;;;5098081;28;20441;-82
2023/03/25 07:38:35;;;;;;;0.90;0.80;;;10.10;97.30;;;;;;5110150;28;20468;-84
2023/03/25 07:41:06;;;;;;;1.20;1.10;;;9.90;97.30;;;;;;5104995;28;20468;-83
2023/03/25 07:43:32;;;;;;;1.10;1.00;;;9.80;97.30;;;;;;5110965;28;20597;-83
2023/03/25 07:45:57;;;;;;;0.90;0.80;;;9.70;97.30;;;;;;5109854;28;20428;-81
2023/03/25 07:48:23;;;;;;;1.00;0.90;;;9.70;97.30;;;;;;5106250;28;20209;-83
2023/03/25 07:50:51;;;;;;;0.90;0.80;;;9.60;97.30;;;;;;5109886;28;20174;-81
2023/03/25 07:53:16;;;;;;;0.90;0.80;;;9.70;97.30;;;;;;5113828;28;20205;-82
2023/03/25 07:55:44;;;;;;;0.90;0.80;;;9.70;97.30;;;;;;5108425;28;20407;-81
2023/03/25 07:58:10;;;;;;;0.97;0.87;;;9.70;97.30;;;;;;5104260;28;20200;-81
2023/03/25 08:00:35;;;;;;;0.90;0.80;;;9.80;97.30;;;;;;5106076;28;20411;-81
2023/03/25 08:03:01;;;;;;;1.07;0.97;;;9.80;97.30;;;;;;5110166;28;20461;-81
2023/03/25 08:05:26;;;;;;;1.27;1.17;;;9.90;97.30;;;;;;5107172;28;20676;-82
2023/03/25 08:07:52;;;;;;;1.00;0.90;;;9.90;97.30;;;;;;5113038;28;20676;-81
2023/03/25 08:10:18;;;;;;;1.00;0.90;;;10.00;97.30;;;;;;5110420;28;20548;-80
2023/03/25 08:12:46;;;;;;;1.17;1.07;;;10.00;97.30;;;;;;5113660;28;20632;-81
2023/03/25 08:15:12;;;;;;;1.20;1.10;;;10.10;97.30;;;;;;5095753;28;20495;-81
2023/03/25 08:17:39;;;;;;;1.67;1.57;;;10.10;97.30;;;;;;5114036;28;20445;-80
2023/03/25 08:20:10;;;;;;;1.10;1.00;;;10.10;97.30;;;;;;5115697;28;21547;-85
2023/03/25 08:22:35;;;;;;;1.00;0.90;;;10.10;97.30;;;;;;5096441;28;20412;-85
2023/03/25 08:25:01;;;;;;;0.97;0.87;;;10.10;97.30;;;;;;5084182;28;20422;-84
2023/03/25 08:27:29;;;;;;;1.10;1.00;;;10.20;97.30;;;;;;5085600;28;20556;-84
2023/03/25 08:29:56;;;;;;;1.10;1.00;;;10.20;97.30;;;;;;5086147;28;20178;-84
2023/03/25 08:32:23;;;;;;;0.90;0.80;;;10.30;97.30;;;;;;5103470;28;20464;-82
2023/03/25 08:34:51;;;;;;;1.00;0.90;;;10.30;97.30;;;;;;5098470;28;20412;-83
2023/03/25 08:37:24;;;;;;;0.90;0.80;;;10.20;97.30;;;;;;5100952;28;20484;-83
2023/03/25 08:39:50;;;;;;;1.00;0.90;;;10.20;97.30;;;;;;5101669;28;20506;-85
2023/03/25 08:42:16;;;;;;;1.10;1.00;;;10.20;97.30;;;;;;5091756;28;20448;-84
2023/03/25 08:44:42;;;;;;;1.00;0.90;;;10.20;97.30;;;;;;5090126;28;20269;-85
2023/03/25 08:47:08;;;;;;;1.10;1.00;;;10.20;97.30;;;;;;5093592;28;20439;-85
2023/03/25 08:49:33;;;;;;;0.90;0.80;;;10.20;97.30;;;;;;5094713;28;20206;-85
2023/03/25 08:52:00;;;;;;;1.53;1.43;;;10.30;97.30;;;;;;5088940;28;20285;-85
2023/03/25 08:54:26;;;;;;;1.10;1.00;;;10.30;97.30;;;;;;5089996;28;20175;-85
2023/03/25 08:56:53;;;;;;;1.23;1.13;;;10.20;97.30;;;;;;5090167;28;20790;-85
2023/03/25 08:59:19;;;;;;;2.40;1.83;;;10.20;97.30;;;;;;5086202;28;20432;-84
2023/03/25 09:01:44;;;;;;;0.90;0.80;;;10.20;97.30;;;;;;5098708;28;20423;-85
2023/03/25 09:04:10;;;;;;;1.00;0.90;;;10.10;97.30;;;;;;5085901;28;20415;-85
2023/03/25 09:06:36;;;;;;;0.97;0.80;;;10.10;97.30;;;;;;5097552;28;20185;-86
2023/03/25 09:09:04;;;;;;;1.20;1.10;;;10.00;97.30;;;;;;5087838;28;20618;-85
2023/03/25 09:11:30;;;;;;;0.93;0.83;;;10.00;97.30;;;;;;5082803;28;20206;-85
2023/03/25 09:13:56;;;;;;;0.93;0.83;;;10.00;97.30;;;;;;5081718;28;20461;-85
2023/03/25 09:16:21;;;;;;;1.00;0.90;;;10.10;97.30;;;;;;5091049;28;20408;-85
2023/03/25 09:18:46;;;;;;;1.30;1.20;;;10.20;97.30;;;;;;5089308;28;20187;-84
2023/03/25 09:21:12;;;;;;;1.00;0.90;;;10.40;97.30;;;;;;5092992;28;20226;-85
2023/03/25 09:23:37;;;;;;;1.03;0.93;;;10.60;97.30;;;;;;5095231;28;20170;-84
2023/03/25 09:26:04;;;;;;;1.43;1.20;;;10.80;97.30;;;;;;5081981;28;20232;-85
2023/03/25 09:28:30;;;;;;;1.00;0.90;;;11.00;97.30;;;;;;5089010;28;20202;-85
2023/03/25 09:30:55;;;;;;;7.03;1.37;;;11.30;97.30;;;;;;5090520;28;20483;-85
2023/03/25 09:33:21;;;;;;;1.00;0.90;;;11.50;97.10;;;;;;5088491;28;20417;-85
2023/03/25 09:35:50;;;;;;;0.83;0.77;;;11.50;96.40;;;;;;5088816;28;20703;-84
2023/03/25 09:38:16;;;;;;;1.10;1.00;;;11.50;96.90;;;;;;5093853;28;20242;-85
2023/03/25 09:40:43;;;;;;;1.40;1.30;;;11.40;97.00;;;;;;5099273;28;20503;-84
2023/03/25 09:43:30;;;;;;;1.00;0.90;;;11.40;96.30;;;;;;5107803;28;20182;-85
2023/03/25 09:45:57;;;;;;;0.90;0.80;;;11.30;96.20;;;;;;5101162;28;20419;-85
2023/03/25 09:48:43;;;;;;;6.10;1.50;;;11.20;95.20;;;;;;5101092;28;20431;-85
2023/03/25 09:51:24;;;;;;;0.93;0.83;;;11.20;94.80;;;;;;5097873;28;20471;-85
2023/03/25 09:53:55;;;;;;;1.10;1.00;;;11.30;95.00;;;;;;5102215;28;20416;-83
2023/03/25 09:56:24;;;;;;;0.90;0.80;;;11.30;94.60;;;;;;5103707;28;20929;-86
2023/03/25 09:59:18;;;;;;;1.10;1.00;;;11.30;94.50;;;;;;5106152;28;20476;-85
2023/03/25 10:02:03;;;;;;;1.00;0.90;;;11.30;95.00;;;;;;5098484;28;20883;-85
2023/03/25 10:05:01;;;;;;;1.10;1.00;;;11.50;94.80;;;;;;5096059;28;20432;-86
2023/03/25 10:08:05;;;;;;;0.93;0.83;;;11.80;94.70;;;;;;5095173;28;20425;-86
2023/03/25 10:10:38;;;;;;;1.10;1.00;;;12.10;93.50;;;;;;5096257;28;20418;-84
2023/03/25 10:13:27;;;;;;;0.80;0.70;;;12.40;93.00;;;;;;5092498;28;20454;-85
2023/03/25 10:16:03;;;;;;;1.20;1.10;;;12.50;92.10;;;;;;5095989;28;20813;-85
2023/03/25 10:18:35;;;;;;;1.30;1.20;;;12.70;92.30;;;;;;5096779;28;20467;-86
2023/03/25 10:21:22;;;;;;;1.17;1.07;;;13.00;91.20;;;;;;5103343;28;20677;-85
2023/03/25 10:24:13;;;;;;;0.83;0.77;;;13.30;89.90;;;;;;5103263;28;20428;-85
2023/03/25 10:26:44;;;;;;;1.10;1.00;;;13.10;89.60;;;;;;5093578;28;20510;-85
2023/03/25 10:29:15;;;;;;;0.93;0.83;;;12.90;89.50;;;;;;5102837;28;20479;-85
2023/03/25 10:31:53;;;;;;;1.20;1.10;;;12.70;88.50;;;;;;5100010;28;20471;-85
2023/03/25 10:34:29;;;;;;;1.93;1.07;;;12.40;89.20;;;;;;5089740;28;20445;-86
2023/03/25 10:36:59;;;;;;;1.00;0.90;;;12.20;89.80;;;;;;5103108;28;20423;-85
2023/03/25 10:39:33;;;;;;;1.70;1.60;;;12.10;90.50;;;;;;5100768;28;20520;-86
2023/03/25 10:42:21;;;;;;;1.30;1.20;;;12.00;90.80;;;;;;5105307;28;20441;-85
2023/03/25 10:44:47;;;;;;;1.37;1.27;;;12.00;91.40;;;;;;5096511;28;20771;-86
2023/03/25 10:47:21;;;;;;;1.00;0.93;;;12.00;91.20;;;;;;5105580;28;20422;-86
2023/03/25 10:49:48;;;;;;;1.00;0.90;;;11.90;90.90;;;;;;5099414;28;20198;-85
2023/03/25 10:52:14;;;;;;;1.10;1.00;;;11.80;91.00;;;;;;5103404;28;20455;-85
2023/03/25 10:54:44;;;;;;;0.90;0.80;;;11.90;91.60;;;;;;5105029;28;20409;-85
2023/03/25 10:57:24;;;;;;;1.10;1.00;;;12.10;91.00;;;;;;5109960;28;20415;-85
2023/03/25 11:00:03;;;;;;;0.90;0.80;;;12.40;90.30;;;;;;5102165;28;20435;-85
2023/03/25 11:02:30;;;;;;;1.00;0.90;;;12.60;89.70;;;;;;5103800;28;20929;-85
2023/03/25 11:05:03;;;;;;;1.10;1.00;;;12.90;89.20;;;;;;5100502;28;20939;-85
2023/03/25 11:07:42;;;;;;;4.27;1.27;;;13.00;88.60;;;;;;5098795;28;20435;-84
2023/03/25 11:10:21;;;;;;;1.00;0.90;;;13.00;89.10;;;;;;5109407;28;21005;-83
2023/03/25 11:12:50;;;;;;;1.00;0.90;;;12.90;88.40;;;;;;5099984;28;20456;-84
2023/03/25 11:15:29;;;;;;;0.90;0.80;;;12.70;88.10;;;;;;5109027;28;20424;-83
2023/03/25 11:17:59;;;;;;;1.00;0.90;;;12.70;88.30;;;;;;5107724;28;20466;-85
2023/03/25 11:20:29;;;;;;;0.97;0.87;;;12.50;88.10;;;;;;5105842;28;20912;-85
2023/03/25 11:23:02;;;;;;;3.93;1.00;;;12.50;88.50;;;;;;5099840;28;20419;-86
2023/03/25 11:25:36;;;;;;;3.53;1.93;;;12.50;88.90;;;;;;5102327;28;20456;-85
2023/03/25 11:28:09;;;;;;;1.00;0.90;;;12.60;89.00;;;;;;5105514;28;20439;-85
2023/03/25 11:30:35;;;;;;;1.00;1.00;;;12.90;88.90;;;;;;5097748;28;20429;-86
2023/03/25 11:33:11;;;;;;;1.00;0.90;;;13.10;88.10;;;;;;5104166;28;20479;-86
2023/03/25 11:35:42;;;;;;;0.90;0.80;;;13.30;87.60;;;;;;5084932;28;20652;-86
2023/03/25 11:38:36;;;;;;;0.70;0.70;;;13.20;87.10;;;;;;5100927;28;20975;-86
2023/03/25 11:41:02;;;;;;;1.13;1.10;;;12.90;87.50;;;;;;5103846;28;20492;-87
2023/03/25 11:43:35;;;;;;;2.10;1.87;;;12.90;87.90;;;;;;5094026;28;20432;-86
2023/03/25 11:46:15;;;;;;;1.10;1.00;;;12.90;88.70;;;;;;5103337;28;20434;-86
2023/03/25 11:48:42;;;;;;;1.00;0.90;;;13.10;89.00;;;;;;5098945;28;20504;-86
2023/03/25 11:51:14;;;;;;;0.90;0.80;;;13.10;88.20;;;;;;5097419;28;20817;-81
2023/03/25 11:54:03;;;;;;;1.10;1.00;;;13.20;87.80;;;;;;5091289;28;20934;-85
2023/03/25 11:56:35;;;;;;;0.90;0.80;;;13.20;87.80;;;;;;5093983;28;20436;-83
2023/03/25 11:59:02;;;;;;;1.00;1.00;;;13.20;88.00;;;;;;5107832;28;20439;-82
2023/03/25 12:01:36;;;;;;;1.00;0.90;;;13.40;87.20;;;;;;5102216;28;20447;-83
2023/03/25 12:04:17;;;;;;;1.23;1.13;;;13.60;87.10;;;;;;5102098;28;20427;-85
2023/03/25 12:06:56;;;;;;;1.20;1.10;;;13.70;86.40;;;;;;5094364;28;20786;-85
2023/03/25 12:09:23;;;;;;;1.03;1.00;;;13.90;86.80;;;;;;5099751;28;20443;-82
2023/03/25 12:12:13;;;;;;;5.53;1.40;;;13.90;85.50;;;;;;5101338;28;20464;-82
2023/03/25 12:14:49;;;;;;;0.70;0.70;;;13.80;85.70;;;;;;5105512;28;20923;-82
2023/03/25 12:17:38;;;;;;;0.93;0.83;;;13.70;86.10;;;;;;5099501;28;20416;-83
2023/03/25 12:20:28;;;;;;;1.13;1.03;;;13.50;86.20;;;;;;5093360;28;20425;-86
2023/03/25 12:23:01;;;;;;;1.00;0.90;;;13.40;87.40;;;;;;5089228;28;20467;-85
2023/03/25 12:25:38;;;;;;;1.03;1.00;;;13.20;87.10;;;;;;5083997;28;20799;-84
2023/03/25 12:28:27;;;;;;;1.00;0.90;;;12.80;92.20;;;;;;5086610;28;20447;-85
2023/03/25 12:31:20;;;;;;;1.13;1.03;;;12.50;94.50;;;;;;5098127;28;20459;-86
2023/03/25 12:34:04;;;;;;;1.10;1.00;;;12.20;94.90;;;;;;5096558;28;20582;-86
2023/03/25 12:36:55;;;;;;;1.10;1.00;;;12.10;94.70;;;;;;5090028;28;20439;-86
2023/03/25 12:39:42;;;;;;;1.00;0.90;;;12.00;94.70;;;;;;5090338;28;20476;-86
2023/03/25 12:42:35;;;;;;;1.50;1.40;;;12.20;94.50;;;;;;5098193;28;20489;-86
2023/03/25 12:45:16;;;;;;;3.80;1.13;;;12.70;92.80;;;;;;5096430;28;20417;-86
2023/03/25 12:47:57;;;;;;;1.40;1.17;;;13.30;90.90;;;;;;5101650;28;20540;-86
2023/03/25 12:50:52;;;;;;;1.00;0.90;;;13.80;89.70;;;;;;5087814;28;20415;-86
2023/03/25 12:53:45;;;;;;;1.00;1.00;;;14.20;87.20;;;;;;5088392;28;20416;-85
2023/03/25 12:56:32;;;;;;;0.70;0.70;;;14.50;87.10;;;;;;5101899;28;20474;-86
2023/03/25 12:59:30;;;;;;;1.10;0.90;;;14.60;86.20;;;;;;5094717;28;20527;-86
2023/03/25 13:02:14;;;;;;;1.17;1.07;;;14.30;85.70;;;;;;5090699;28;20428;-85
2023/03/25 13:05:17;;;;;;;1.10;1.00;;;13.90;87.30;;;;;;5090262;28;20504;-85
2023/03/25 13:07:49;;;;;;;0.90;0.70;;;13.60;87.50;;;;;;5082255;28;20409;-85
2023/03/25 13:10:20;;;;;;;1.03;0.93;;;13.40;87.80;;;;;;5099295;28;20425;-87
2023/03/25 13:12:53;;;;;;;5.37;1.00;;;12.40;88.50;;;;;;5092610;28;20456;-85